Current News

By popular demand, I have restored the previous template "type" back to the website. This is a major work in progress... So don't complain when something is broken.

I did put a link to the earlier WeeWX version that presents much more data at the top right corner of the page.
-- Jeffrey

Current Weather Cam

Current Radar Loop

Nearby METAR Reports

 

KSJC - San Jose, California, USA
Distance from station: NE 9mi, 14km
Updated: Sun, 19-Aug-2018 7:53am CDT
Overcast
Overcast
 Wind from N
Wind: N 5 mph , 7 km/h
Temperature: 59°F , 15°C
Dew Point: 57°F , 14°C
Humidity: 94%
Barometer: 29.97 inHg , 1014.9 hPa
Clouds: Overcast
Visibility: 7 miles , 11 km
Cloud details: Overcast 600 ft
2018/08/19 12:53 KSJC 191253Z 36004KT 7SM OVC006 15/14 A2997 RMK AO2 SLP149 T01500139
KNUQ - Moffett Nas/Mtn, California, USA
Distance from station: N 9mi, 14km
Updated: Sun, 19-Aug-2018 7:56am CDT
Overcast
Overcast
 Wind from calm
Wind: Calm
Temperature: 59°F , 15°C
Dew Point: 57°F , 14°C
Humidity: 94%
Barometer: 29.98 inHg , 1015.2 hPa
Clouds: Overcast
Visibility: 8 miles , 13 km
Cloud details: Overcast 800 ft
2018/08/19 12:56 KNUQ 191256Z 00000KT 8SM OVC008 15/14 A2998 RMK AO2 SLP155 T01500139 $
 
KPAO - Palo Alto, California, USA
Distance from station: NNW 14mi, 23km
Updated: Sat, 18-Aug-2018 10:47pm CDT
NOT Current
Clear
Clear
 Wind from NW
Wind: NW 12 mph , 19 km/h
Temperature: 64°F , 18°C
Dew Point: 57°F , 14°C
Humidity: 78%
Barometer: 30.00 inHg , 1015.9 hPa
Clouds: Clear
Visibility: 7 miles , 11 km
2018/08/19 03:47 KPAO 190347Z 32010KT 7SM SKC 18/14 A3000
KRHV - San Jose/Reid, California, USA
Distance from station: ENE 12mi, 19km
Updated: Sat, 18-Aug-2018 6:47pm CDT
NOT Current
Clear
Clear
 Wind from NNW
Wind: NNW 8 mph , 13 km/h
Temperature: 91°F , 33°C
Dew Point: 46°F , 8°C
Humidity: 21%
Barometer: 29.94 inHg , 1013.9 hPa
Clouds: Clear
Visibility: 10 miles , 16 km
2018/08/18 23:47 KRHV 182347Z 33007KT 10SM SKC 33/08 A2994
 
KOAK - Oakland, California, USA
Distance from station: NNW 31mi, 50km
Updated: Sun, 19-Aug-2018 7:53am CDT
Mist, Overcast
Mist, Overcast
 Wind from WNW
Wind: WNW 6 mph , 9 km/h
Temperature: 55°F , 13°C
Dew Point: 55°F , 13°C
Humidity: 100%
Barometer: 29.99 inHg , 1015.6 hPa
Summary: Mist
Clouds: Overcast
Visibility: 6 miles , 10 km
Cloud details: Overcast 500 ft
2018/08/19 12:53 KOAK 191253Z 30005KT 6SM BR OVC005 13/13 A2999 RMK AO2 SLP153 T01330128 $
KSQL - San Carlos Airpo, California, USA
Distance from station: NW 21mi, 34km
Updated: Sun, 19-Aug-2018 8:20am CDT
Overcast
Overcast
 Wind from NW
Wind: NW 3 mph , 6 km/h
Temperature: 57°F , 14°C
Dew Point: 54°F , 12°C
Humidity: 88%
Barometer: 29.99 inHg , 1015.6 hPa
Clouds: Overcast
Visibility: 7 miles , 11 km
Cloud details: Overcast 500 ft
2018/08/19 13:20 KSQL 191320Z AUTO 31003KT 7SM OVC005 14/12 A2999 RMK AO2
 
KSFO - San Francisco, California, USA
Distance from station: NW 30mi, 49km
Updated: Sun, 19-Aug-2018 8:11am CDT
Mostly cloudy
Mostly cloudy
 Wind from varies
Wind: varies 3 mph , 6 km/h
Temperature: 54°F , 12°C
Dew Point: 52°F , 11°C
Humidity: 94%
Barometer: 29.98 inHg , 1015.2 hPa
Clouds: Mostly cloudy
Visibility: 10 miles , 16 km
Cloud details: Few Clouds 600 ft
Partly cloudy 800 ft
Mostly cloudy 1200 ft
2018/08/19 13:11 KSFO 191311Z VRB03KT 10SM FEW006 SCT008 BKN012 12/11 A2998 RMK AO2 T01170111
KE16 - San Martin, California, USA
Distance from station: ESE 27mi, 43km
Updated: Sun, 19-Aug-2018 8:10am CDT
Overcast
Overcast
 Wind from calm
Wind: Calm
Temperature: 54°F , 12°C
Dew Point: 48°F , 9°C
Humidity: 82%
Barometer: 30.00 inHg , 1015.9 hPa
Clouds: Overcast
Visibility: 10 miles , 16 km
Cloud details: Overcast 3300 ft
2018/08/19 13:10 KE16 191310Z AUTO 00000KT 10SM OVC033 12/09 A3000 RMK AO2
 
KWVI - Watsonville, California, USA
Distance from station: SSE 27mi, 44km
Updated: Sun, 19-Aug-2018 7:53am CDT
Mist, Overcast
Mist, Overcast
 Wind from W
Wind: W 3 mph , 6 km/h
Temperature: 55°F , 13°C
Dew Point: 54°F , 12°C
Humidity: 94%
Barometer: 29.99 inHg , 1015.6 hPa
Summary: Mist
Clouds: Overcast
Visibility: 6 miles , 10 km
Cloud details: Overcast 300 ft
2018/08/19 12:53 KWVI 191253Z AUTO 27003KT 6SM BR OVC003 13/12 A2999 RMK AO2 SLP154 T01280122 $
KHAF - Half Moon Bay, California, USA
Distance from station: WNW 31mi, 50km
Updated: Sun, 19-Aug-2018 8:20am CDT
Mist, Overcast
Mist, Overcast
 Wind from ENE
Wind: ENE 5 mph , 7 km/h
Temperature: 54°F , 12°C
Dew Point: 52°F , 11°C
Humidity: 94%
Barometer: 30.01 inHg , 1016.3 hPa
Summary: Mist
Clouds: Overcast
Visibility: 1 3/4 miles , 2.8 km
Cloud details: Overcast 300 ft
2018/08/19 13:20 KHAF 191320Z AUTO 06004KT 1 3/4SM BR OVC003 12/11 A3001 RMK AO2
 
KHWD - Hayward, California, USA
Distance from station: N 28mi, 44km
Updated: Sun, 19-Aug-2018 7:54am CDT
Mist, Overcast
Mist, Overcast
 Wind from N
Wind: N 5 mph , 7 km/h
Temperature: 57°F , 14°C
Dew Point: 54°F , 12°C
Humidity: 88%
Barometer: 29.98 inHg , 1015.2 hPa
Summary: Mist
Clouds: Overcast
Visibility: 6 miles , 10 km
Cloud details: Overcast 500 ft
2018/08/19 12:54 KHWD 191254Z AUTO 01004KT 6SM BR OVC005 14/12 A2998 RMK AO2 SLP161 T01390117
KLVK - Livermore, California, USA
Distance from station: NNE 31mi, 51km
Updated: Sun, 19-Aug-2018 7:53am CDT
Smoke, Clear
Smoke, Clear
 Wind from NW
Wind: NW 3 mph , 6 km/h
Temperature: 57°F , 14°C
Dew Point: 48°F , 9°C
Humidity: 72%
Barometer: 29.95 inHg , 1014.2 hPa
Summary: Smoke
Clouds: Clear
Visibility: 7 miles , 11 km
2018/08/19 12:53 KLVK 191253Z AUTO 31003KT 7SM FU CLR 14/09 A2995 RMK AO2 SLP137 T01390089